createdAt,value
2023-03-16T00:02:43.051Z,100.00
2023-03-16T00:22:44.576Z,100.00
2023-03-16T00:42:46.133Z,100.00
2023-03-16T01:02:47.749Z,100.00
2023-03-16T01:22:49.309Z,100.00
2023-03-16T01:42:51.087Z,100.00
2023-03-16T02:02:53.768Z,100.00
2023-03-16T02:23:01.994Z,100.00
2023-03-16T02:43:03.799Z,100.00
2023-03-16T03:03:25.188Z,100.00
2023-03-16T03:23:45.739Z,100.00
2023-03-16T03:44:05.712Z,100.00
2023-03-16T04:04:26.282Z,100.00
2023-03-16T04:24:46.138Z,100.00
2023-03-16T04:45:06.631Z,100.00
2023-03-16T05:05:08.351Z,100.00
2023-03-16T05:25:15.984Z,100.00
2023-03-16T05:45:21.284Z,100.00
2023-03-16T06:05:48.325Z,100.00
2023-03-16T06:25:58.360Z,100.00
2023-03-16T06:46:18.896Z,98.78
2023-03-16T07:06:39.548Z,90.71
2023-03-16T07:26:59.718Z,94.15
2023-03-16T07:47:19.629Z,96.73
2023-03-16T08:07:39.473Z,88.99
2023-03-16T08:27:59.574Z,89.15
2023-03-16T08:48:01.445Z,92.17
2023-03-16T09:08:05.101Z,87.12
2023-03-16T09:28:07.045Z,81.63
2023-03-16T09:48:08.646Z,76.37
2023-03-16T10:08:10.283Z,56.63
2023-03-16T10:28:11.869Z,53.55
2023-03-16T10:48:13.558Z,50.68
2023-03-16T11:08:15.192Z,51.19
2023-03-16T11:28:17.056Z,49.09
2023-03-16T11:48:18.562Z,46.74
2023-03-16T12:08:20.451Z,41.64
2023-03-16T12:28:23.354Z,44.13
2023-03-16T12:48:25.200Z,42.24
2023-03-16T13:08:26.685Z,43.02
2023-03-16T13:28:28.294Z,41.27
2023-03-16T13:48:48.394Z,40.88
2023-03-16T14:09:08.518Z,39.09
2023-03-16T14:29:28.602Z,39.70
2023-03-16T14:49:49.219Z,40.41
2023-03-16T15:10:08.897Z,39.62
2023-03-16T15:30:29.363Z,40.60
2023-03-16T15:50:31.027Z,39.94
2023-03-16T16:10:32.613Z,40.78
2023-03-16T16:30:34.235Z,41.17
2023-03-16T16:50:36.458Z,44.51
2023-03-16T17:10:37.971Z,51.29
2023-03-16T17:30:40.492Z,58.01
2023-03-16T17:50:42.038Z,62.09
2023-03-16T18:10:43.622Z,70.05
2023-03-16T18:30:46.774Z,72.13
2023-03-16T18:50:48.750Z,73.09
2023-03-16T19:10:50.312Z,73.73
2023-03-16T19:30:51.875Z,81.16
2023-03-16T19:50:53.792Z,85.37
2023-03-16T20:10:55.222Z,84.62
2023-03-16T20:30:57.866Z,83.87
2023-03-16T20:50:59.632Z,92.18
2023-03-16T21:11:01.287Z,92.50
2023-03-16T21:31:03.089Z,91.48
2023-03-16T21:51:04.785Z,95.05
2023-03-16T22:11:06.268Z,98.74
2023-03-16T22:31:08.048Z,94.90
2023-03-16T22:51:09.731Z,93.04
2023-03-16T23:11:11.495Z,91.95
2023-03-16T23:31:12.917Z,89.79
2023-03-16T23:51:14.747Z,76.68
